nws-alerts: Checking more than four warning/county codes can delay the loading of your pages. You should use a cron job to get the data.
^^
Monroeville - KPAMUNIC2 Historical Data
 
Daily Summary for February 24, 2024 Units:  English    Metric   Both
Daily Weekly Monthly Yearly
  Current: High: Low: Average:
Temperature: 28.6 °F 37 °F 27.3 °F 32.5 °F
Dew Point: 23.6 °F 32.9 °F 23.3 °F 27.2 °F
Humidity: 81.7% 89% 73.1% 81%
Wind Speed: 2.2mph 3mph 0.5mph 1.7mph
Wind Gust: 6.5mph 10.3mph - -
WindEast - - East
Pressure: 29.81 in 29.81 in 29.64 in -
Precipitation: 0.00 in      
 
 
Tabular Data for February 24, 2024
Time Temperature Dew Point Pressure Wind Wind Speed Wind Gust Humidity Rainfall Rate (Hourly) solar
00:04 36.9 °F 32.5 °F 29.64 in East 1.2 mph 3.1 mph 84% 0.00 in 0 W/m2
00:09 36.6 °F 32.4 °F 29.65 in NE 0.6 mph 2.5 mph 84.9% 0.00 in 0 W/m2
00:14 36.1 °F 32.3 °F 29.65 in ENE 0.5 mph 2.2 mph 85.7% 0.00 in 0 W/m2
00:19 36 °F 32.3 °F 29.65 in SE 0.8 mph 3.1 mph 86.4% 0.00 in 0 W/m2
00:24 36 °F 32.6 °F 29.65 in SE 1.1 mph 3.6 mph 87% 0.00 in 0 W/m2
00:29 36.2 °F 32.8 °F 29.65 in ESE 0.9 mph 3.6 mph 87% 0.00 in 0 W/m2
00:34 36.4 °F 32.8 °F 29.65 in East 1.1 mph 2.9 mph 86.4% 0.00 in 0 W/m2
00:39 36.8 °F 32.9 °F 29.66 in SSW 1.1 mph 5.6 mph 85.8% 0.00 in 0 W/m2
00:44 37 °F 32.9 °F 29.65 in ESE 1.1 mph 4 mph 85.1% 0.00 in 0 W/m2
00:49 37 °F 32.9 °F 29.66 in SSE 1.7 mph 4.3 mph 85% 0.00 in 0 W/m2
00:54 37 °F 32.8 °F 29.65 in SE 1.4 mph 3.8 mph 85% 0.00 in 0 W/m2
00:59 36.9 °F 32.7 °F 29.65 in WNW 1.3 mph 5.8 mph 84.8% 0.00 in 0 W/m2
01:04 36.7 °F 32.4 °F 29.66 in NE 1.5 mph 5.6 mph 84.1% 0.00 in 0 W/m2
01:09 36.7 °F 32.4 °F 29.66 in NNE 1.3 mph 4.5 mph 84.2% 0.00 in 0 W/m2
01:14 36.7 °F 32.4 °F 29.66 in East 1.6 mph 6.3 mph 84.5% 0.00 in 0 W/m2
01:19 36.5 °F 32.3 °F 29.66 in North 1.8 mph 7.2 mph 84.3% 0.00 in 0 W/m2
01:24 36.4 °F 32.1 °F 29.66 in North 1.7 mph 7.2 mph 84% 0.00 in 0 W/m2
01:29 36.3 °F 32.1 °F 29.66 in East 1.5 mph 6.9 mph 84.7% 0.00 in 0 W/m2
01:34 36.1 °F 31.8 °F 29.66 in NE 0.9 mph 6.9 mph 84% 0.00 in 0 W/m2
01:39 36.1 °F 31.8 °F 29.67 in ESE 1 mph 3.8 mph 84% 0.00 in 0 W/m2
01:44 36 °F 31.6 °F 29.67 in East 1.6 mph 4.7 mph 84% 0.00 in 0 W/m2
01:49 35.8 °F 31.5 °F 29.67 in SW 1.4 mph 4.5 mph 84% 0.00 in 0 W/m2
01:54 35.7 °F 31.4 °F 29.67 in NE 2.1 mph 6.7 mph 84% 0.00 in 0 W/m2
01:59 35.6 °F 31.3 °F 29.67 in SE 1.2 mph 4.7 mph 84.1% 0.00 in 0 W/m2
02:04 35.6 °F 31.5 °F 29.68 in ESE 1.2 mph 4.3 mph 84.9% 0.00 in 0 W/m2
02:09 35.4 °F 31.2 °F 29.68 in ESE 1 mph 4.7 mph 84.4% 0.00 in 0 W/m2
02:14 35.3 °F 31 °F 29.68 in NE 1.6 mph 4.9 mph 84% 0.00 in 0 W/m2
02:19 35.2 °F 30.9 °F 29.67 in ENE 1.4 mph 4.3 mph 84.1% 0.00 in 0 W/m2
02:24 35.2 °F 31 °F 29.67 in SSW 1.4 mph 4.9 mph 84.5% 0.00 in 0 W/m2
02:29 35.2 °F 30.9 °F 29.67 in North 1.4 mph 4.9 mph 84.3% 0.00 in 0 W/m2
02:34 35.1 °F 30.9 °F 29.66 in NW 1.1 mph 4 mph 84.9% 0.00 in 0 W/m2
02:39 35.1 °F 30.8 °F 29.67 in NNE 1.2 mph 3.6 mph 84.7% 0.00 in 0 W/m2
02:44 35.1 °F 30.9 °F 29.67 in SE 1.5 mph 5.8 mph 85% 0.00 in 0 W/m2
02:49 35 °F 30.9 °F 29.67 in ESE 1.3 mph 3.8 mph 85% 0.00 in 0 W/m2
02:54 34.9 °F 30.7 °F 29.66 in ENE 1 mph 3.1 mph 84.6% 0.00 in 0 W/m2
02:59 34.8 °F 30.6 °F 29.67 in NE 2.6 mph 7.8 mph 84.6% 0.00 in 0 W/m2
03:04 34.7 °F 30.4 °F 29.67 in ENE 2.4 mph 7.8 mph 84.1% 0.00 in 0 W/m2
03:09 34.5 °F 30.2 °F 29.67 in ENE 1.5 mph 4.9 mph 84% 0.00 in 0 W/m2
03:14 34.4 °F 30.1 °F 29.67 in SSE 1.8 mph 6 mph 84% 0.00 in 0 W/m2
03:19 34.3 °F 30.1 °F 29.66 in ENE 1.4 mph 6.5 mph 84.3% 0.00 in 0 W/m2
03:24 34.2 °F 29.9 °F 29.67 in NNE 2.2 mph 6.3 mph 84% 0.00 in 0 W/m2
03:29 34.2 °F 29.8 °F 29.67 in NE 1.1 mph 6.3 mph 84% 0.00 in 0 W/m2
03:34 34.1 °F 29.8 °F 29.67 in ESE 1.2 mph 5.8 mph 84% 0.00 in 0 W/m2
03:39 34 °F 29.7 °F 29.67 in North 1 mph 4 mph 84% 0.00 in 0 W/m2
03:44 33.9 °F 29.6 °F 29.67 in ENE 1.2 mph 3.1 mph 84% 0.00 in 0 W/m2
03:49 33.8 °F 29.3 °F 29.67 in NE 1.6 mph 4.7 mph 83.5% 0.00 in 0 W/m2
03:54 33.6 °F 28.9 °F 29.68 in East 1.5 mph 4.7 mph 83% 0.00 in 0 W/m2
03:59 33.6 °F 28.9 °F 29.68 in WSW 1.2 mph 7.2 mph 82.9% 0.00 in 0 W/m2
04:04 33.4 °F 28.5 °F 29.68 in NNE 1.8 mph 7.2 mph 82% 0.00 in 0 W/m2
04:09 33.1 °F 28.2 °F 29.68 in NE 1.5 mph 5.1 mph 82% 0.00 in 0 W/m2
04:14 32.8 °F 27.9 °F 29.68 in NE 1.9 mph 6 mph 81.7% 0.00 in 0 W/m2
04:19 32.6 °F 27.6 °F 29.68 in East 2.4 mph 6 mph 81.6% 0.00 in 0 W/m2
04:24 32.5 °F 27.4 °F 29.68 in SE 2.1 mph 4.5 mph 81.3% 0.00 in 0 W/m2
04:29 32.5 °F 27.2 °F 29.69 in NE 1.5 mph 6.3 mph 80.6% 0.00 in 0 W/m2
04:34 32.5 °F 27.1 °F 29.69 in ENE 1.3 mph 6.3 mph 80.3% 0.00 in 0 W/m2
04:39 32.4 °F 27 °F 29.68 in NE 1.7 mph 6 mph 80% 0.00 in 0 W/m2
04:44 32.4 °F 26.7 °F 29.68 in ENE 1.9 mph 6 mph 79.3% 0.00 in 0 W/m2
04:49 32.3 °F 26.7 °F 29.68 in East 1.6 mph 4.5 mph 79.3% 0.00 in 0 W/m2
04:54 32.2 °F 26.3 °F 29.68 in East 1.8 mph 5.6 mph 78.7% 0.00 in 0 W/m2
04:59 32.1 °F 25.9 °F 29.69 in NE 1.2 mph 5.8 mph 77.8% 0.00 in 0 W/m2
05:04 32 °F 25.8 °F 29.69 in NE 1.6 mph 7.8 mph 77.7% 0.00 in 0 W/m2
05:09 31.9 °F 25.6 °F 29.69 in SE 1 mph 7.8 mph 77% 0.00 in 0 W/m2
05:14 31.8 °F 25.5 °F 29.69 in NE 1.8 mph 4.5 mph 76.8% 0.00 in 0 W/m2
05:19 31.8 °F 25.5 °F 29.69 in ENE 1.8 mph 5.4 mph 76.8% 0.00 in 0 W/m2
05:24 31.8 °F 25.4 °F 29.69 in ENE 1.1 mph 4 mph 76.5% 0.00 in 0 W/m2
05:29 31.7 °F 25.1 °F 29.69 in SSE 1.8 mph 7.8 mph 75.9% 0.00 in 0 W/m2
05:34 31.6 °F 24.9 °F 29.69 in ENE 1.5 mph 7.8 mph 75.9% 0.00 in 0 W/m2
05:39 31.6 °F 25 °F 29.70 in ENE 1.1 mph 5.4 mph 76% 0.00 in 0 W/m2
05:44 31.5 °F 24.6 °F 29.70 in NE 2.1 mph 6.5 mph 75.4% 0.00 in 0 W/m2
05:49 31.5 °F 24.4 °F 29.69 in NNE 1.3 mph 4.7 mph 75% 0.00 in 0 W/m2
05:54 31.5 °F 24.3 °F 29.70 in NNE 2.3 mph 5.8 mph 74.7% 0.00 in 0 W/m2
05:59 31.5 °F 24.5 °F 29.70 in SSE 1.8 mph 5.8 mph 75.1% 0.00 in 0 W/m2
06:04 31.5 °F 24.1 °F 29.70 in ENE 1.6 mph 5.1 mph 74.2% 0.00 in 0 W/m2
06:09 31.3 °F 23.9 °F 29.70 in NE 1.7 mph 6.7 mph 73.8% 0.00 in 0 W/m2
06:14 31.3 °F 24.1 °F 29.70 in East 1.5 mph 6.5 mph 74.5% 0.00 in 0 W/m2
06:19 31.3 °F 24.1 °F 29.70 in East 1.1 mph 4.5 mph 74.5% 0.00 in 0 W/m2
06:24 31.3 °F 23.9 °F 29.70 in SSE 1.8 mph 8.9 mph 73.8% 0.00 in 0 W/m2
06:29 31.3 °F 24.2 °F 29.71 in ESE 1.1 mph 3.8 mph 74.6% 0.00 in 0 W/m2
06:34 31.2 °F 23.8 °F 29.71 in North 1.7 mph 7.2 mph 73.6% 0.00 in 0 W/m2
06:39 31.1 °F 23.6 °F 29.71 in ENE 1.9 mph 6.7 mph 73.7% 0.00 in 0 W/m2
06:44 31.1 °F 23.6 °F 29.71 in ENE 1.7 mph 5.1 mph 73.4% 0.00 in 0 W/m2
06:49 31 °F 23.5 °F 29.71 in WNW 2 mph 5.1 mph 73.1% 0.00 in 0 W/m2
06:54 31 °F 23.5 °F 29.72 in East 2.3 mph 10.3 mph 73.2% 0.00 in 0 W/m2
06:59 31 °F 23.5 °F 29.71 in NE 2 mph 5.8 mph 73.4% 0.00 in 0 W/m2
07:04 30.9 °F 23.4 °F 29.72 in ENE 1.9 mph 5.1 mph 73.1% 0.00 in 0 W/m2
07:09 30.9 °F 23.4 °F 29.72 in ENE 2.2 mph 8.5 mph 73.5% 0.00 in 2 W/m2
07:14 30.9 °F 23.4 °F 29.72 in ESE 1.9 mph 4 mph 73.2% 0.00 in 4 W/m2
07:19 30.9 °F 23.4 °F 29.72 in NNE 2.2 mph 8.5 mph 73.1% 0.00 in 6 W/m2
07:24 30.9 °F 23.4 °F 29.72 in NE 1.9 mph 7.4 mph 73.2% 0.00 in 8 W/m2
07:29 30.8 °F 23.3 °F 29.73 in ENE 1.6 mph 5.4 mph 73.2% 0.00 in 8 W/m2
07:34 30.7 °F 23.3 °F 29.73 in East 1.8 mph 5.4 mph 73.4% 0.00 in 13 W/m2
07:39 30.7 °F 23.3 °F 29.74 in East 2.6 mph 6.5 mph 73.3% 0.00 in 20 W/m2
07:44 30.8 °F 23.3 °F 29.74 in NNE 2.5 mph 6.9 mph 73.4% 0.00 in 37 W/m2
07:49 30.8 °F 23.4 °F 29.74 in NE 2.2 mph 5.8 mph 73.1% 0.00 in 42 W/m2
07:54 30.9 °F 23.5 °F 29.74 in ESE 2 mph 4.7 mph 73.5% 0.00 in 34 W/m2
07:59 31 °F 23.6 °F 29.75 in SSW 1.4 mph 5.6 mph 73.8% 0.00 in 18 W/m2
08:04 30.8 °F 23.5 °F 29.75 in ENE 1.7 mph 4.7 mph 73.9% 0.00 in 24 W/m2
08:09 30.7 °F 23.4 °F 29.75 in ESE 1.9 mph 4.9 mph 73.9% 0.00 in 34 W/m2
08:14 30.7 °F 23.6 °F 29.75 in SE 2.2 mph 5.6 mph 74.5% 0.00 in 37 W/m2
08:19 30.7 °F 23.7 °F 29.76 in ENE 1.6 mph 7.2 mph 74.9% 0.00 in 51 W/m2
08:24 30.7 °F 23.7 °F 29.76 in North 2.5 mph 7.2 mph 75% 0.00 in 57 W/m2
08:29 30.7 °F 23.9 °F 29.76 in NW 1.5 mph 6.3 mph 75.4% 0.00 in 53 W/m2
08:34 30.5 °F 24.3 °F 29.76 in NNE 2.6 mph 6.7 mph 77.6% 0.00 in 45 W/m2
08:39 29.8 °F 24.7 °F 29.77 in SE 2.3 mph 7.8 mph 80.6% 0.00 in 45 W/m2
08:44 29.7 °F 24.9 °F 29.77 in NW 2 mph 6.7 mph 82% 0.00 in 45 W/m2
08:49 29.3 °F 24.7 °F 29.77 in North 2.5 mph 8.1 mph 82.6% 0.00 in 54 W/m2
08:54 28.6 °F 24.5 °F 29.78 in North 2.5 mph 8.1 mph 84.5% 0.00 in 56 W/m2
08:59 28.6 °F 25.1 °F 29.78 in SE 1.7 mph 5.8 mph 86.6% 0.00 in 62 W/m2
09:04 28.4 °F 25 °F 29.79 in ESE 1.2 mph 4 mph 87% 0.00 in 65 W/m2
09:09 28.1 °F 24.9 °F 29.79 in East 1.7 mph 4 mph 87.4% 0.00 in 59 W/m2
09:14 28 °F 24.9 °F 29.79 in SE 1.2 mph 4 mph 88% 0.00 in 46 W/m2
09:19 27.8 °F 24.8 °F 29.78 in ENE 2.1 mph 5.1 mph 88.7% 0.00 in 50 W/m2
09:24 27.7 °F 24.8 °F 29.79 in East 2.3 mph 6.7 mph 89% 0.00 in 62 W/m2
09:29 27.3 °F 24.3 °F 29.79 in NE 2.7 mph 8.5 mph 88.3% 0.00 in 75 W/m2
09:34 27.4 °F 24.3 °F 29.79 in ENE 2.3 mph 8.3 mph 87.8% 0.00 in 74 W/m2
09:39 27.7 °F 24.3 °F 29.80 in ESE 2.4 mph 7.6 mph 87% 0.00 in 75 W/m2
09:44 27.8 °F 24.5 °F 29.80 in East 2.7 mph 7.6 mph 87.3% 0.00 in 76 W/m2
09:49 27.8 °F 24.5 °F 29.80 in ENE 2.3 mph 7.4 mph 87.4% 0.00 in 86 W/m2
09:54 28 °F 24.3 °F 29.80 in ENE 1.9 mph 7.4 mph 85.6% 0.00 in 86 W/m2
09:59 28.3 °F 24 °F 29.80 in NE 2.1 mph 5.8 mph 83.5% 0.00 in 77 W/m2
10:04 28.3 °F 23.5 °F 29.80 in SE 1.7 mph 5.8 mph 82.1% 0.00 in 74 W/m2
10:09 28.3 °F 23.5 °F 29.81 in ENE 3 mph 7.8 mph 82.1% 0.00 in 61 W/m2
10:14 28.4 °F 23.8 °F 29.80 in ESE 1.8 mph 7.8 mph 82.9% 0.00 in 79 W/m2
10:19 28.6 °F 23.6 °F 29.81 in East 2.2 mph 6.5 mph 81.7% 0.00 in 101 W/m2
Monroeville, Pennsylvania, USA
Compliments of Weather Underground - 4 mb